sensor_id;sensor_type;location;lat;lon;timestamp;pressure;altitude;pressure_sealevel;temperature;humidity
42847;BME280;28495;49.916;14.536;2023-06-24T00:01:37;97378.44;;;15.52;67.00
42847;BME280;28495;49.916;14.536;2023-06-24T00:07:00;97384.34;;;15.54;67.02
42847;BME280;28495;49.916;14.536;2023-06-24T00:12:21;97376.59;;;15.52;67.06
42847;BME280;28495;49.916;14.536;2023-06-24T00:17:42;97388.09;;;15.51;66.92
42847;BME280;28495;49.916;14.536;2023-06-24T00:23:02;97392.75;;;15.58;67.39
42847;BME280;28495;49.916;14.536;2023-06-24T00:28:23;97399.19;;;15.63;67.11
42847;BME280;28495;49.916;14.536;2023-06-24T00:33:44;97409.69;;;15.63;67.01
42847;BME280;28495;49.916;14.536;2023-06-24T00:39:06;97422.28;;;15.51;66.95
42847;BME280;28495;49.916;14.536;2023-06-24T00:44:27;97437.53;;;15.48;67.29
42847;BME280;28495;49.916;14.536;2023-06-24T00:49:48;97439.97;;;15.41;67.46
42847;BME280;28495;49.916;14.536;2023-06-24T00:55:11;97441.44;;;15.44;67.39
42847;BME280;28495;49.916;14.536;2023-06-24T01:00:35;97440.81;;;15.42;67.23
42847;BME280;28495;49.916;14.536;2023-06-24T01:05:56;97437.81;;;15.36;67.37
42847;BME280;28495;49.916;14.536;2023-06-24T01:11:17;97439.53;;;15.28;67.34
42847;BME280;28495;49.916;14.536;2023-06-24T01:28:07;97431.16;;;15.24;67.77
42847;BME280;28495;49.916;14.536;2023-06-24T01:33:41;97417.34;;;15.22;67.81
42847;BME280;28495;49.916;14.536;2023-06-24T01:39:08;97415.69;;;15.21;68.13
42847;BME280;28495;49.916;14.536;2023-06-24T01:44:30;97422.59;;;15.22;68.00
42847;BME280;28495;49.916;14.536;2023-06-24T01:49:53;97420.19;;;15.29;67.98
42847;BME280;28495;49.916;14.536;2023-06-24T01:55:18;97429.41;;;15.33;67.86
42847;BME280;28495;49.916;14.536;2023-06-24T02:00:41;97423.81;;;15.36;67.66
42847;BME280;28495;49.916;14.536;2023-06-24T02:06:04;97431.56;;;15.37;67.53
42847;BME280;28495;49.916;14.536;2023-06-24T02:11:28;97437.63;;;15.38;67.71
42847;BME280;28495;49.916;14.536;2023-06-24T02:16:51;97438.28;;;15.32;67.85
42847;BME280;28495;49.916;14.536;2023-06-24T02:22:17;97442.09;;;15.37;67.96
42847;BME280;28495;49.916;14.536;2023-06-24T02:27:39;97442.75;;;15.39;67.93
42847;BME280;28495;49.916;14.536;2023-06-24T02:33:00;97459.53;;;15.47;67.80
42847;BME280;28495;49.916;14.536;2023-06-24T02:38:21;97473.94;;;15.61;68.33
42847;BME280;28495;49.916;14.536;2023-06-24T02:43:42;97480.06;;;15.69;68.12
42847;BME280;28495;49.916;14.536;2023-06-24T02:49:03;97485.06;;;15.81;67.93
42847;BME280;28495;49.916;14.536;2023-06-24T02:54:26;97502.25;;;15.93;68.14
42847;BME280;28495;49.916;14.536;2023-06-24T03:00:07;97508.50;;;15.92;67.88
42847;BME280;28495;49.916;14.536;2023-06-24T03:06:04;97502.72;;;15.89;67.55
42847;BME280;28495;49.916;14.536;2023-06-24T03:11:27;97511.97;;;15.93;67.68
42847;BME280;28495;49.916;14.536;2023-06-24T03:16:51;97518.88;;;15.94;67.67
42847;BME280;28495;49.916;14.536;2023-06-24T03:22:13;97526.31;;;15.98;67.88
42847;BME280;28495;49.916;14.536;2023-06-24T03:27:38;97524.94;;;15.94;67.68
42847;BME280;28495;49.916;14.536;2023-06-24T03:32:59;97529.94;;;16.06;67.96
42847;BME280;28495;49.916;14.536;2023-06-24T03:38:20;97526.00;;;16.02;67.67
42847;BME280;28495;49.916;14.536;2023-06-24T03:43:42;97525.72;;;16.13;67.98
42847;BME280;28495;49.916;14.536;2023-06-24T03:49:04;97514.09;;;16.24;67.88
42847;BME280;28495;49.916;14.536;2023-06-24T03:54:25;97526.09;;;16.26;67.91
42847;BME280;28495;49.916;14.536;2023-06-24T03:59:47;97519.88;;;16.36;67.91
42847;BME280;28495;49.916;14.536;2023-06-24T04:05:09;97520.47;;;16.21;67.25
42847;BME280;28495;49.916;14.536;2023-06-24T04:10:31;97531.66;;;16.15;67.67
42847;BME280;28495;49.916;14.536;2023-06-24T04:15:52;97531.75;;;16.05;67.53
42847;BME280;28495;49.916;14.536;2023-06-24T04:21:13;97529.03;;;16.15;67.95
42847;BME280;28495;49.916;14.536;2023-06-24T04:26:35;97523.28;;;16.20;67.95
42847;BME280;28495;49.916;14.536;2023-06-24T04:31:55;97521.16;;;16.23;67.71
42847;BME280;28495;49.916;14.536;2023-06-24T04:37:17;97528.13;;;16.33;67.97
42847;BME280;28495;49.916;14.536;2023-06-24T04:42:40;97533.22;;;16.34;68.03
42847;BME280;28495;49.916;14.536;2023-06-24T04:48:01;97525.81;;;16.38;67.67
42847;BME280;28495;49.916;14.536;2023-06-24T04:53:21;97533.72;;;16.38;67.63
42847;BME280;28495;49.916;14.536;2023-06-24T04:58:42;97545.59;;;16.42;67.91
42847;BME280;28495;49.916;14.536;2023-06-24T05:04:03;97551.94;;;16.31;67.79
42847;BME280;28495;49.916;14.536;2023-06-24T05:09:25;97561.84;;;16.37;68.09
42847;BME280;28495;49.916;14.536;2023-06-24T05:14:50;97576.81;;;16.37;67.93
42847;BME280;28495;49.916;14.536;2023-06-24T05:20:11;97582.00;;;16.55;68.19
42847;BME280;28495;49.916;14.536;2023-06-24T05:25:32;97587.91;;;16.49;67.63
42847;BME280;28495;49.916;14.536;2023-06-24T05:30:54;97587.41;;;16.53;67.96
42847;BME280;28495;49.916;14.536;2023-06-24T05:36:15;97599.00;;;16.69;68.20
42847;BME280;28495;49.916;14.536;2023-06-24T05:41:35;97604.72;;;16.56;67.80
42847;BME280;28495;49.916;14.536;2023-06-24T05:46:56;97606.09;;;16.68;68.07
42847;BME280;28495;49.916;14.536;2023-06-24T05:52:17;97602.13;;;16.72;67.85
42847;BME280;28495;49.916;14.536;2023-06-24T05:57:38;97603.19;;;16.88;67.74
42847;BME280;28495;49.916;14.536;2023-06-24T06:02:58;97615.38;;;16.89;68.25
42847;BME280;28495;49.916;14.536;2023-06-24T06:08:20;97612.63;;;16.99;67.95
42847;BME280;28495;49.916;14.536;2023-06-24T06:13:40;97610.19;;;17.05;67.72
42847;BME280;28495;49.916;14.536;2023-06-24T06:19:02;97614.78;;;17.03;67.73
42847;BME280;28495;49.916;14.536;2023-06-24T06:24:23;97622.06;;;17.10;67.82
42847;BME280;28495;49.916;14.536;2023-06-24T06:29:44;97616.00;;;17.17;67.93
42847;BME280;28495;49.916;14.536;2023-06-24T06:35:06;97619.47;;;17.26;68.19
42847;BME280;28495;49.916;14.536;2023-06-24T06:40:27;97624.09;;;17.41;68.00
42847;BME280;28495;49.916;14.536;2023-06-24T06:45:49;97618.19;;;17.47;68.14
42847;BME280;28495;49.916;14.536;2023-06-24T06:51:10;97622.31;;;17.49;67.67
42847;BME280;28495;49.916;14.536;2023-06-24T06:56:31;97616.38;;;17.47;67.54
42847;BME280;28495;49.916;14.536;2023-06-24T07:01:52;97613.41;;;17.50;68.07
42847;BME280;28495;49.916;14.536;2023-06-24T07:07:13;97610.09;;;17.57;67.90
42847;BME280;28495;49.916;14.536;2023-06-24T07:12:34;97609.13;;;17.58;68.30
42847;BME280;28495;49.916;14.536;2023-06-24T07:17:55;97614.72;;;17.88;68.59
42847;BME280;28495;49.916;14.536;2023-06-24T07:23:16;97611.53;;;18.50;69.06
42847;BME280;28495;49.916;14.536;2023-06-24T07:28:37;97598.31;;;18.50;67.79
42847;BME280;28495;49.916;14.536;2023-06-24T07:33:57;97610.75;;;18.25;67.89
42847;BME280;28495;49.916;14.536;2023-06-24T07:39:18;97616.19;;;18.23;67.98
42847;BME280;28495;49.916;14.536;2023-06-24T07:44:39;97614.38;;;18.24;68.01
42847;BME280;28495;49.916;14.536;2023-06-24T07:50:00;97607.13;;;18.26;68.21
42847;BME280;28495;49.916;14.536;2023-06-24T07:55:21;97619.00;;;18.30;68.14
42847;BME280;28495;49.916;14.536;2023-06-24T08:00:42;97620.78;;;18.46;68.33
42847;BME280;28495;49.916;14.536;2023-06-24T08:06:03;97624.69;;;18.58;68.33
42847;BME280;28495;49.916;14.536;2023-06-24T08:11:24;97625.69;;;19.06;68.26
42847;BME280;28495;49.916;14.536;2023-06-24T08:16:45;97623.22;;;19.36;67.91
42847;BME280;28495;49.916;14.536;2023-06-24T08:22:06;97626.78;;;19.43;67.89
42847;BME280;28495;49.916;14.536;2023-06-24T08:27:27;97622.91;;;19.77;67.29
42847;BME280;28495;49.916;14.536;2023-06-24T08:32:48;97640.19;;;19.41;66.95
42847;BME280;28495;49.916;14.536;2023-06-24T08:38:09;97635.56;;;19.12;67.43
42847;BME280;28495;49.916;14.536;2023-06-24T08:43:30;97639.06;;;19.59;67.51
42847;BME280;28495;49.916;14.536;2023-06-24T08:49:01;97633.75;;;19.82;67.60
42847;BME280;28495;49.916;14.536;2023-06-24T08:54:23;97633.59;;;20.07;67.05
42847;BME280;28495;49.916;14.536;2023-06-24T08:59:45;97627.13;;;20.09;66.57
42847;BME280;28495;49.916;14.536;2023-06-24T09:05:07;97623.44;;;20.49;65.90
42847;BME280;28495;49.916;14.536;2023-06-24T09:10:37;97627.69;;;20.35;65.81
42847;BME280;28495;49.916;14.536;2023-06-24T09:15:59;97633.53;;;20.30;65.63
42847;BME280;28495;49.916;14.536;2023-06-24T09:21:23;97637.09;;;20.37;65.91
42847;BME280;28495;49.916;14.536;2023-06-24T09:26:45;97623.31;;;20.72;65.17
42847;BME280;28495;49.916;14.536;2023-06-24T09:32:07;97621.59;;;20.64;64.68
42847;BME280;28495;49.916;14.536;2023-06-24T09:37:27;97629.81;;;20.69;64.40
42847;BME280;28495;49.916;14.536;2023-06-24T09:42:56;97629.56;;;20.94;64.00
42847;BME280;28495;49.916;14.536;2023-06-24T09:48:17;97625.78;;;20.89;63.31
42847;BME280;28495;49.916;14.536;2023-06-24T09:53:38;97620.66;;;21.02;63.58
42847;BME280;28495;49.916;14.536;2023-06-24T09:58:59;97619.75;;;20.80;63.00
42847;BME280;28495;49.916;14.536;2023-06-24T10:04:20;97623.84;;;20.97;63.63
42847;BME280;28495;49.916;14.536;2023-06-24T10:09:42;97612.94;;;21.22;63.68
42847;BME280;28495;49.916;14.536;2023-06-24T10:15:05;97625.09;;;21.53;64.21
42847;BME280;28495;49.916;14.536;2023-06-24T10:20:26;97618.72;;;21.69;63.17
42847;BME280;28495;49.916;14.536;2023-06-24T10:25:48;97614.84;;;21.72;62.10
42847;BME280;28495;49.916;14.536;2023-06-24T10:31:09;97607.72;;;21.72;62.04
42847;BME280;28495;49.916;14.536;2023-06-24T10:36:32;97610.34;;;21.51;61.85
42847;BME280;28495;49.916;14.536;2023-06-24T10:41:54;97600.34;;;21.53;62.18
42847;BME280;28495;49.916;14.536;2023-06-24T10:47:15;97605.66;;;21.68;61.42
42847;BME280;28495;49.916;14.536;2023-06-24T10:52:44;97605.94;;;21.58;61.97
42847;BME280;28495;49.916;14.536;2023-06-24T10:58:08;97596.94;;;21.81;61.84
42847;BME280;28495;49.916;14.536;2023-06-24T11:03:34;97577.75;;;22.07;62.00
42847;BME280;28495;49.916;14.536;2023-06-24T11:09:02;97573.31;;;22.14;60.84
42847;BME280;28495;49.916;14.536;2023-06-24T11:14:23;97569.22;;;22.18;60.48
42847;BME280;28495;49.916;14.536;2023-06-24T11:19:44;97577.41;;;22.17;60.06
42847;BME280;28495;49.916;14.536;2023-06-24T11:25:05;97569.31;;;21.97;60.15
42847;BME280;28495;49.916;14.536;2023-06-24T11:30:26;97565.88;;;22.03;59.59
42847;BME280;28495;49.916;14.536;2023-06-24T11:35:47;97558.94;;;22.08;59.55
42847;BME280;28495;49.916;14.536;2023-06-24T11:41:07;97551.09;;;22.22;59.42
42847;BME280;28495;49.916;14.536;2023-06-24T11:46:29;97544.78;;;22.30;59.28
42847;BME280;28495;49.916;14.536;2023-06-24T11:51:57;97543.59;;;22.39;58.83
42847;BME280;28495;49.916;14.536;2023-06-24T11:57:17;97534.63;;;22.40;58.04
42847;BME280;28495;49.916;14.536;2023-06-24T12:02:38;97536.75;;;22.51;58.89
42847;BME280;28495;49.916;14.536;2023-06-24T12:08:06;97533.53;;;22.69;58.98
42847;BME280;28495;49.916;14.536;2023-06-24T12:13:27;97537.66;;;22.79;57.78
42847;BME280;28495;49.916;14.536;2023-06-24T12:18:48;97530.31;;;22.81;57.01
42847;BME280;28495;49.916;14.536;2023-06-24T12:24:09;97530.97;;;22.96;57.22
42847;BME280;28495;49.916;14.536;2023-06-24T12:29:29;97525.84;;;23.02;56.95
42847;BME280;28495;49.916;14.536;2023-06-24T12:34:50;97530.53;;;22.93;57.07
42847;BME280;28495;49.916;14.536;2023-06-24T12:40:11;97521.53;;;23.01;56.89
42847;BME280;28495;49.916;14.536;2023-06-24T12:45:32;97521.78;;;23.12;56.56
42847;BME280;28495;49.916;14.536;2023-06-24T12:50:52;97523.00;;;23.10;56.25
42847;BME280;28495;49.916;14.536;2023-06-24T12:56:14;97520.34;;;23.10;55.67
42847;BME280;28495;49.916;14.536;2023-06-24T13:01:34;97516.03;;;22.89;55.10
42847;BME280;28495;49.916;14.536;2023-06-24T13:06:55;97513.78;;;22.92;55.77
42847;BME280;28495;49.916;14.536;2023-06-24T13:12:16;97512.97;;;22.98;55.17
42847;BME280;28495;49.916;14.536;2023-06-24T13:17:37;97499.88;;;23.10;54.65
42847;BME280;28495;49.916;14.536;2023-06-24T13:22:58;97497.66;;;23.14;54.16
42847;BME280;28495;49.916;14.536;2023-06-24T13:28:19;97506.44;;;23.14;53.97
42847;BME280;28495;49.916;14.536;2023-06-24T13:33:40;97500.50;;;23.12;53.45
42847;BME280;28495;49.916;14.536;2023-06-24T13:39:05;97497.44;;;23.16;53.32
42847;BME280;28495;49.916;14.536;2023-06-24T13:44:27;97506.03;;;23.11;52.67
42847;BME280;28495;49.916;14.536;2023-06-24T13:49:48;97497.44;;;23.02;52.81
42847;BME280;28495;49.916;14.536;2023-06-24T13:55:09;97506.03;;;23.11;52.54
42847;BME280;28495;49.916;14.536;2023-06-24T14:00:30;97505.00;;;23.12;51.89
42847;BME280;28495;49.916;14.536;2023-06-24T14:05:50;97504.41;;;23.10;51.70
42847;BME280;28495;49.916;14.536;2023-06-24T14:11:11;97496.41;;;23.03;51.43
42847;BME280;28495;49.916;14.536;2023-06-24T14:16:32;97491.09;;;23.03;51.29
42847;BME280;28495;49.916;14.536;2023-06-24T14:21:53;97483.31;;;23.15;51.81
42847;BME280;28495;49.916;14.536;2023-06-24T14:27:14;97484.56;;;23.26;51.31
42847;BME280;28495;49.916;14.536;2023-06-24T14:32:35;97471.47;;;23.24;51.18
42847;BME280;28495;49.916;14.536;2023-06-24T14:37:56;97472.91;;;23.20;50.67
42847;BME280;28495;49.916;14.536;2023-06-24T14:43:17;97473.50;;;23.09;50.33
42847;BME280;28495;49.916;14.536;2023-06-24T14:48:39;97463.66;;;23.09;50.04
42847;BME280;28495;49.916;14.536;2023-06-24T14:54:00;97466.94;;;23.11;50.65
42847;BME280;28495;49.916;14.536;2023-06-24T14:59:21;97456.50;;;23.03;49.89
42847;BME280;28495;49.916;14.536;2023-06-24T15:04:41;97453.41;;;22.99;50.11
42847;BME280;28495;49.916;14.536;2023-06-24T15:10:04;97464.91;;;23.13;49.49
42847;BME280;28495;49.916;14.536;2023-06-24T15:15:26;97466.75;;;23.06;49.45
42847;BME280;28495;49.916;14.536;2023-06-24T15:20:46;97461.00;;;23.03;49.39
42847;BME280;28495;49.916;14.536;2023-06-24T15:26:07;97459.78;;;22.98;48.74
42847;BME280;28495;49.916;14.536;2023-06-24T15:31:28;97457.50;;;22.89;48.98
42847;BME280;28495;49.916;14.536;2023-06-24T15:36:49;97452.81;;;22.97;49.21
42847;BME280;28495;49.916;14.536;2023-06-24T15:42:10;97454.84;;;22.95;48.85
42847;BME280;28495;49.916;14.536;2023-06-24T15:47:31;97457.13;;;22.98;49.40
42847;BME280;28495;49.916;14.536;2023-06-24T15:52:52;97449.72;;;23.01;49.58
42847;BME280;28495;49.916;14.536;2023-06-24T15:58:13;97449.72;;;22.94;49.30
42847;BME280;28495;49.916;14.536;2023-06-24T16:03:34;97459.75;;;22.92;48.95
42847;BME280;28495;49.916;14.536;2023-06-24T16:08:55;97451.75;;;22.78;48.73
42847;BME280;28495;49.916;14.536;2023-06-24T16:14:17;97459.53;;;22.80;48.79
42847;BME280;28495;49.916;14.536;2023-06-24T16:19:38;97460.34;;;22.80;48.86
42847;BME280;28495;49.916;14.536;2023-06-24T16:24:58;97459.94;;;22.77;48.48
42847;BME280;28495;49.916;14.536;2023-06-24T16:30:20;97451.56;;;22.73;48.60
42847;BME280;28495;49.916;14.536;2023-06-24T16:35:41;97454.22;;;22.73;48.35
42847;BME280;28495;49.916;14.536;2023-06-24T16:41:02;97453.19;;;22.67;48.05
42847;BME280;28495;49.916;14.536;2023-06-24T16:46:23;97448.25;;;22.64;48.33
42847;BME280;28495;49.916;14.536;2023-06-24T16:51:47;97449.66;;;22.60;48.43
42847;BME280;28495;49.916;14.536;2023-06-24T16:57:07;97443.72;;;22.58;48.17
42847;BME280;28495;49.916;14.536;2023-06-24T17:02:28;97445.13;;;22.54;48.39
42847;BME280;28495;49.916;14.536;2023-06-24T17:07:49;97448.84;;;22.53;48.42
42847;BME280;28495;49.916;14.536;2023-06-24T17:13:10;97444.72;;;22.44;48.70
42847;BME280;28495;49.916;14.536;2023-06-24T17:18:31;97444.66;;;22.37;48.73
42847;BME280;28495;49.916;14.536;2023-06-24T17:23:52;97443.63;;;22.31;49.18
42847;BME280;28495;49.916;14.536;2023-06-24T17:29:13;97450.13;;;22.22;49.23
42847;BME280;28495;49.916;14.536;2023-06-24T17:34:37;97442.31;;;22.14;48.92
42847;BME280;28495;49.916;14.536;2023-06-24T17:39:57;97449.47;;;22.06;49.13
42847;BME280;28495;49.916;14.536;2023-06-24T17:45:18;97441.88;;;22.03;49.32
42847;BME280;28495;49.916;14.536;2023-06-24T17:50:39;97439.38;;;21.95;49.38
42847;BME280;28495;49.916;14.536;2023-06-24T17:56:00;97437.09;;;21.85;49.52
42847;BME280;28495;49.916;14.536;2023-06-24T18:01:20;97442.88;;;21.67;49.81
42847;BME280;28495;49.916;14.536;2023-06-24T18:06:45;97445.06;;;21.57;49.82
42847;BME280;28495;49.916;14.536;2023-06-24T18:12:07;97431.50;;;21.45;49.76
42847;BME280;28495;49.916;14.536;2023-06-24T18:17:27;97439.16;;;21.33;50.23
42847;BME280;28495;49.916;14.536;2023-06-24T18:22:49;97439.88;;;21.20;50.39
42847;BME280;28495;49.916;14.536;2023-06-24T18:28:10;97445.13;;;21.13;50.64
42847;BME280;28495;49.916;14.536;2023-06-24T18:33:30;97450.97;;;21.02;50.32
42847;BME280;28495;49.916;14.536;2023-06-24T18:38:51;97443.31;;;20.92;50.33
42847;BME280;28495;49.916;14.536;2023-06-24T18:44:12;97450.56;;;20.83;50.39
42847;BME280;28495;49.916;14.536;2023-06-24T18:49:33;97455.50;;;20.71;50.30
42847;BME280;28495;49.916;14.536;2023-06-24T18:54:53;97457.19;;;20.58;50.77
42847;BME280;28495;49.916;14.536;2023-06-24T19:00:14;97458.59;;;20.53;51.01
42847;BME280;28495;49.916;14.536;2023-06-24T19:05:35;97454.16;;;20.39;51.38
42847;BME280;28495;49.916;14.536;2023-06-24T19:10:59;97451.97;;;20.28;51.64
42847;BME280;28495;49.916;14.536;2023-06-24T19:16:20;97457.84;;;20.08;51.92
42847;BME280;28495;49.916;14.536;2023-06-24T19:21:41;97466.97;;;20.05;52.11
42847;BME280;28495;49.916;14.536;2023-06-24T19:27:02;97478.56;;;20.04;52.31
42847;BME280;28495;49.916;14.536;2023-06-24T19:32:23;97479.00;;;19.78;52.29
42847;BME280;28495;49.916;14.536;2023-06-24T19:37:44;97481.34;;;19.58;52.87
42847;BME280;28495;49.916;14.536;2023-06-24T19:43:05;97475.13;;;19.50;53.26
42847;BME280;28495;49.916;14.536;2023-06-24T19:48:26;97475.81;;;19.29;53.11
42847;BME280;28495;49.916;14.536;2023-06-24T19:53:48;97479.88;;;19.17;53.66
42847;BME280;28495;49.916;14.536;2023-06-24T19:59:09;97488.34;;;19.12;53.72
42847;BME280;28495;49.916;14.536;2023-06-24T20:04:30;97481.13;;;19.06;53.88
42847;BME280;28495;49.916;14.536;2023-06-24T20:09:51;97498.66;;;18.99;53.98
42847;BME280;28495;49.916;14.536;2023-06-24T20:15:12;97487.31;;;18.90;54.30
42847;BME280;28495;49.916;14.536;2023-06-24T20:20:34;97484.19;;;18.86;54.41
42847;BME280;28495;49.916;14.536;2023-06-24T20:25:55;97488.00;;;18.84;54.52
42847;BME280;28495;49.916;14.536;2023-06-24T20:31:16;97487.31;;;18.90;54.87
42847;BME280;28495;49.916;14.536;2023-06-24T20:36:37;97485.50;;;18.91;54.95
42847;BME280;28495;49.916;14.536;2023-06-24T20:41:58;97485.28;;;19.00;55.02
42847;BME280;28495;49.916;14.536;2023-06-24T20:47:18;97484.50;;;18.92;55.00
42847;BME280;28495;49.916;14.536;2023-06-24T20:52:39;97492.13;;;18.86;54.89
42847;BME280;28495;49.916;14.536;2023-06-24T20:58:00;97493.47;;;18.82;55.10
42847;BME280;28495;49.916;14.536;2023-06-24T21:03:21;97484.38;;;18.85;55.34
42847;BME280;28495;49.916;14.536;2023-06-24T21:08:42;97479.84;;;18.94;55.16
42847;BME280;28495;49.916;14.536;2023-06-24T21:14:03;97489.31;;;18.88;55.13
42847;BME280;28495;49.916;14.536;2023-06-24T21:19:24;97480.00;;;18.92;55.43
42847;BME280;28495;49.916;14.536;2023-06-24T21:24:45;97472.50;;;18.81;55.61
42847;BME280;28495;49.916;14.536;2023-06-24T21:30:07;97472.72;;;18.71;55.21
42847;BME280;28495;49.916;14.536;2023-06-24T21:35:27;97481.38;;;18.65;55.41
42847;BME280;28495;49.916;14.536;2023-06-24T21:40:48;97472.69;;;18.48;55.19
42847;BME280;28495;49.916;14.536;2023-06-24T21:46:09;97480.41;;;18.26;55.48
42847;BME280;28495;49.916;14.536;2023-06-24T21:51:31;97479.41;;;18.27;55.82
42847;BME280;28495;49.916;14.536;2023-06-24T21:56:52;97486.28;;;18.36;55.96
42847;BME280;28495;49.916;14.536;2023-06-24T22:02:13;97478.50;;;18.43;55.96
42847;BME280;28495;49.916;14.536;2023-06-24T22:07:34;97480.66;;;18.39;55.75
42847;BME280;28495;49.916;14.536;2023-06-24T22:12:55;97491.03;;;18.09;55.63
42847;BME280;28495;49.916;14.536;2023-06-24T22:18:15;97491.50;;;17.96;56.02
42847;BME280;28495;49.916;14.536;2023-06-24T22:23:36;97491.41;;;17.98;56.23
42847;BME280;28495;49.916;14.536;2023-06-24T22:28:57;97490.03;;;17.94;56.08
42847;BME280;28495;49.916;14.536;2023-06-24T22:34:18;97496.66;;;17.90;56.30
42847;BME280;28495;49.916;14.536;2023-06-24T22:39:39;97490.19;;;17.92;56.28
42847;BME280;28495;49.916;14.536;2023-06-24T22:45:00;97497.78;;;17.95;56.33
42847;BME280;28495;49.916;14.536;2023-06-24T22:50:20;97494.03;;;17.81;56.22
42847;BME280;28495;49.916;14.536;2023-06-24T22:55:41;97492.72;;;17.77;56.46
42847;BME280;28495;49.916;14.536;2023-06-24T23:01:03;97487.63;;;17.76;56.39
42847;BME280;28495;49.916;14.536;2023-06-24T23:06:24;97484.94;;;17.84;56.51
42847;BME280;28495;49.916;14.536;2023-06-24T23:11:49;97486.94;;;17.90;56.70
42847;BME280;28495;49.916;14.536;2023-06-24T23:17:10;97491.03;;;17.93;56.47
42847;BME280;28495;49.916;14.536;2023-06-24T23:22:38;97489.72;;;17.89;56.51
42847;BME280;28495;49.916;14.536;2023-06-24T23:28:00;97497.31;;;17.92;56.71
42847;BME280;28495;49.916;14.536;2023-06-24T23:33:22;97495.47;;;17.92;56.66
42847;BME280;28495;49.916;14.536;2023-06-24T23:38:43;97482.34;;;17.76;56.29
42847;BME280;28495;49.916;14.536;2023-06-24T23:44:04;97485.28;;;17.81;56.78
42847;BME280;28495;49.916;14.536;2023-06-24T23:49:25;97488.25;;;17.78;56.53
42847;BME280;28495;49.916;14.536;2023-06-24T23:54:46;97487.13;;;17.72;56.74
